sensor_id;sensor_type;location;lat;lon;timestamp;temperature;humidity
44729;DHT22;30457;53.590;9.922;2023-04-25T00:01:06;12.40;57.80
44729;DHT22;30457;53.590;9.922;2023-04-25T00:05:32;12.40;58.00
44729;DHT22;30457;53.590;9.922;2023-04-25T00:09:58;12.40;58.70
44729;DHT22;30457;53.590;9.922;2023-04-25T00:14:24;12.40;57.80
44729;DHT22;30457;53.590;9.922;2023-04-25T00:18:49;12.40;57.80
44729;DHT22;30457;53.590;9.922;2023-04-25T00:23:19;12.40;57.40
44729;DHT22;30457;53.590;9.922;2023-04-25T00:27:44;12.30;57.50
44729;DHT22;30457;53.590;9.922;2023-04-25T00:32:10;12.30;57.50
44729;DHT22;30457;53.590;9.922;2023-04-25T00:36:35;12.30;57.30
44729;DHT22;30457;53.590;9.922;2023-04-25T00:41:01;12.30;57.00
44729;DHT22;30457;53.590;9.922;2023-04-25T00:45:28;12.30;56.60
44729;DHT22;30457;53.590;9.922;2023-04-25T00:49:56;12.20;56.50
44729;DHT22;30457;53.590;9.922;2023-04-25T00:54:22;12.10;56.00
44729;DHT22;30457;53.590;9.922;2023-04-25T00:58:49;12.10;56.00
44729;DHT22;30457;53.590;9.922;2023-04-25T01:03:16;12.10;56.00
44729;DHT22;30457;53.590;9.922;2023-04-25T01:07:43;12.10;56.20
44729;DHT22;30457;53.590;9.922;2023-04-25T01:12:08;12.10;56.00
44729;DHT22;30457;53.590;9.922;2023-04-25T01:16:34;12.00;55.80
44729;DHT22;30457;53.590;9.922;2023-04-25T01:21:11;12.00;55.90
44729;DHT22;30457;53.590;9.922;2023-04-25T01:25:37;11.90;56.00
44729;DHT22;30457;53.590;9.922;2023-04-25T01:30:04;11.90;55.90
44729;DHT22;30457;53.590;9.922;2023-04-25T01:34:31;11.90;55.90
44729;DHT22;30457;53.590;9.922;2023-04-25T01:38:57;11.80;55.60
44729;DHT22;30457;53.590;9.922;2023-04-25T01:43:23;11.90;55.70
44729;DHT22;30457;53.590;9.922;2023-04-25T01:47:48;11.80;55.60
44729;DHT22;30457;53.590;9.922;2023-04-25T01:52:15;11.80;55.30
44729;DHT22;30457;53.590;9.922;2023-04-25T01:56:41;11.80;55.10
44729;DHT22;30457;53.590;9.922;2023-04-25T02:01:09;11.80;54.90
44729;DHT22;30457;53.590;9.922;2023-04-25T02:05:42;11.70;54.70
44729;DHT22;30457;53.590;9.922;2023-04-25T02:10:11;11.70;54.60
44729;DHT22;30457;53.590;9.922;2023-04-25T02:14:49;11.70;54.70
44729;DHT22;30457;53.590;9.922;2023-04-25T02:19:23;11.60;54.50
44729;DHT22;30457;53.590;9.922;2023-04-25T02:23:48;11.60;54.50
44729;DHT22;30457;53.590;9.922;2023-04-25T02:28:17;11.60;54.40
44729;DHT22;30457;53.590;9.922;2023-04-25T02:32:42;11.60;54.30
44729;DHT22;30457;53.590;9.922;2023-04-25T02:37:08;11.60;54.20
44729;DHT22;30457;53.590;9.922;2023-04-25T02:41:34;11.50;54.00
44729;DHT22;30457;53.590;9.922;2023-04-25T02:45:59;11.50;53.60
44729;DHT22;30457;53.590;9.922;2023-04-25T02:50:25;11.50;53.70
44729;DHT22;30457;53.590;9.922;2023-04-25T02:54:51;11.50;53.50
44729;DHT22;30457;53.590;9.922;2023-04-25T02:59:16;11.50;53.30
44729;DHT22;30457;53.590;9.922;2023-04-25T03:03:42;11.40;52.90
44729;DHT22;30457;53.590;9.922;2023-04-25T03:08:07;11.30;52.90
44729;DHT22;30457;53.590;9.922;2023-04-25T03:12:36;11.30;52.70
44729;DHT22;30457;53.590;9.922;2023-04-25T03:17:03;11.20;53.00
44729;DHT22;30457;53.590;9.922;2023-04-25T03:21:29;11.20;52.80
44729;DHT22;30457;53.590;9.922;2023-04-25T03:25:57;11.20;52.30
44729;DHT22;30457;53.590;9.922;2023-04-25T03:30:23;11.20;51.80
44729;DHT22;30457;53.590;9.922;2023-04-25T03:34:48;11.10;51.80
44729;DHT22;30457;53.590;9.922;2023-04-25T03:39:14;11.10;51.80
44729;DHT22;30457;53.590;9.922;2023-04-25T03:43:45;11.00;51.80
44729;DHT22;30457;53.590;9.922;2023-04-25T03:48:12;11.00;51.60
44729;DHT22;30457;53.590;9.922;2023-04-25T03:52:38;10.90;51.20
44729;DHT22;30457;53.590;9.922;2023-04-25T03:57:03;10.80;51.20
44729;DHT22;30457;53.590;9.922;2023-04-25T04:01:33;10.80;51.60
44729;DHT22;30457;53.590;9.922;2023-04-25T04:05:58;10.80;51.60
44729;DHT22;30457;53.590;9.922;2023-04-25T04:10:24;10.70;51.40
44729;DHT22;30457;53.590;9.922;2023-04-25T04:14:51;10.70;51.00
44729;DHT22;30457;53.590;9.922;2023-04-25T04:19:17;10.70;50.70
44729;DHT22;30457;53.590;9.922;2023-04-25T04:23:52;10.60;51.10
44729;DHT22;30457;53.590;9.922;2023-04-25T04:28:20;10.60;50.80
44729;DHT22;30457;53.590;9.922;2023-04-25T04:33:04;10.60;50.90
44729;DHT22;30457;53.590;9.922;2023-04-25T04:37:30;10.50;50.70
44729;DHT22;30457;53.590;9.922;2023-04-25T04:41:57;10.50;50.90
44729;DHT22;30457;53.590;9.922;2023-04-25T04:46:41;10.50;51.00
44729;DHT22;30457;53.590;9.922;2023-04-25T04:51:29;10.50;50.70
44729;DHT22;30457;53.590;9.922;2023-04-25T04:56:33;10.50;51.00
44729;DHT22;30457;53.590;9.922;2023-04-25T05:01:16;10.50;51.20
44729;DHT22;30457;53.590;9.922;2023-04-25T05:06:14;10.60;51.10
44729;DHT22;30457;53.590;9.922;2023-04-25T05:11:06;10.60;50.90
44729;DHT22;30457;53.590;9.922;2023-04-25T05:15:41;10.60;50.90
44729;DHT22;30457;53.590;9.922;2023-04-25T05:20:22;10.60;51.50
44729;DHT22;30457;53.590;9.922;2023-04-25T05:25:04;10.60;51.10
44729;DHT22;30457;53.590;9.922;2023-04-25T05:29:51;10.50;51.30
44729;DHT22;30457;53.590;9.922;2023-04-25T05:34:24;10.60;51.40
44729;DHT22;30457;53.590;9.922;2023-04-25T05:39:03;10.60;51.40
44729;DHT22;30457;53.590;9.922;2023-04-25T05:43:48;10.60;51.50
44729;DHT22;30457;53.590;9.922;2023-04-25T05:48:41;10.60;51.20
44729;DHT22;30457;53.590;9.922;2023-04-25T05:53:25;10.70;51.40
44729;DHT22;30457;53.590;9.922;2023-04-25T05:57:59;10.80;51.60
44729;DHT22;30457;53.590;9.922;2023-04-25T06:02:25;10.80;51.40
44729;DHT22;30457;53.590;9.922;2023-04-25T06:06:52;10.90;51.70
44729;DHT22;30457;53.590;9.922;2023-04-25T06:11:18;10.90;51.60
44729;DHT22;30457;53.590;9.922;2023-04-25T06:15:45;11.00;51.50
44729;DHT22;30457;53.590;9.922;2023-04-25T06:20:11;11.00;51.50
44729;DHT22;30457;53.590;9.922;2023-04-25T06:24:37;11.10;51.60
44729;DHT22;30457;53.590;9.922;2023-04-25T06:29:03;11.10;51.40
44729;DHT22;30457;53.590;9.922;2023-04-25T06:33:29;11.20;51.60
44729;DHT22;30457;53.590;9.922;2023-04-25T06:37:55;11.20;51.60
44729;DHT22;30457;53.590;9.922;2023-04-25T06:42:23;11.20;51.40
44729;DHT22;30457;53.590;9.922;2023-04-25T06:46:52;11.20;51.80
44729;DHT22;30457;53.590;9.922;2023-04-25T06:51:18;11.20;51.80
44729;DHT22;30457;53.590;9.922;2023-04-25T06:55:45;11.30;52.00
44729;DHT22;30457;53.590;9.922;2023-04-25T07:00:17;11.30;52.10
44729;DHT22;30457;53.590;9.922;2023-04-25T07:04:43;11.40;51.70
44729;DHT22;30457;53.590;9.922;2023-04-25T07:09:10;11.50;51.20
44729;DHT22;30457;53.590;9.922;2023-04-25T07:13:36;11.50;50.70
44729;DHT22;30457;53.590;9.922;2023-04-25T07:18:02;11.50;50.90
44729;DHT22;30457;53.590;9.922;2023-04-25T07:22:28;11.60;50.90
44729;DHT22;30457;53.590;9.922;2023-04-25T07:26:53;11.60;51.00
44729;DHT22;30457;53.590;9.922;2023-04-25T07:31:27;11.70;50.60
44729;DHT22;30457;53.590;9.922;2023-04-25T07:35:53;11.70;50.30
44729;DHT22;30457;53.590;9.922;2023-04-25T07:40:19;11.70;50.50
44729;DHT22;30457;53.590;9.922;2023-04-25T07:44:49;11.80;50.50
44729;DHT22;30457;53.590;9.922;2023-04-25T07:49:17;11.80;50.60
44729;DHT22;30457;53.590;9.922;2023-04-25T07:53:44;11.90;51.00
44729;DHT22;30457;53.590;9.922;2023-04-25T07:58:12;12.00;50.90
44729;DHT22;30457;53.590;9.922;2023-04-25T08:02:41;12.20;50.60
44729;DHT22;30457;53.590;9.922;2023-04-25T08:07:11;12.30;50.70
44729;DHT22;30457;53.590;9.922;2023-04-25T08:11:52;12.40;50.40
44729;DHT22;30457;53.590;9.922;2023-04-25T08:16:24;12.50;49.50
44729;DHT22;30457;53.590;9.922;2023-04-25T08:20:51;12.50;49.00
44729;DHT22;30457;53.590;9.922;2023-04-25T08:25:16;12.60;49.00
44729;DHT22;30457;53.590;9.922;2023-04-25T08:29:42;12.60;49.00
44729;DHT22;30457;53.590;9.922;2023-04-25T08:34:09;12.70;49.10
44729;DHT22;30457;53.590;9.922;2023-04-25T08:38:42;12.80;49.00
44729;DHT22;30457;53.590;9.922;2023-04-25T08:43:14;12.90;48.30
44729;DHT22;30457;53.590;9.922;2023-04-25T08:47:40;12.90;49.20
44729;DHT22;30457;53.590;9.922;2023-04-25T08:52:08;13.10;48.20
44729;DHT22;30457;53.590;9.922;2023-04-25T08:56:38;13.10;48.00
44729;DHT22;30457;53.590;9.922;2023-04-25T09:01:04;13.20;47.90
44729;DHT22;30457;53.590;9.922;2023-04-25T09:05:36;13.30;48.30
44729;DHT22;30457;53.590;9.922;2023-04-25T09:10:02;13.40;48.10
44729;DHT22;30457;53.590;9.922;2023-04-25T09:14:30;13.40;46.50
44729;DHT22;30457;53.590;9.922;2023-04-25T09:19:30;13.30;46.90
44729;DHT22;30457;53.590;9.922;2023-04-25T09:23:56;13.30;47.00
44729;DHT22;30457;53.590;9.922;2023-04-25T09:28:25;13.30;47.20
44729;DHT22;30457;53.590;9.922;2023-04-25T09:32:57;13.30;47.40
44729;DHT22;30457;53.590;9.922;2023-04-25T09:37:25;13.40;47.40
44729;DHT22;30457;53.590;9.922;2023-04-25T09:42:24;13.40;48.60
44729;DHT22;30457;53.590;9.922;2023-04-25T09:46:50;13.40;48.20
44729;DHT22;30457;53.590;9.922;2023-04-25T09:51:25;13.40;48.60
44729;DHT22;30457;53.590;9.922;2023-04-25T09:55:51;13.30;49.20
44729;DHT22;30457;53.590;9.922;2023-04-25T10:00:17;13.40;49.50
44729;DHT22;30457;53.590;9.922;2023-04-25T10:04:45;13.50;48.30
44729;DHT22;30457;53.590;9.922;2023-04-25T10:09:25;13.50;48.50
44729;DHT22;30457;53.590;9.922;2023-04-25T10:13:51;13.70;49.00
44729;DHT22;30457;53.590;9.922;2023-04-25T10:18:17;13.80;47.30
44729;DHT22;30457;53.590;9.922;2023-04-25T10:22:45;13.90;46.60
44729;DHT22;30457;53.590;9.922;2023-04-25T10:27:13;14.00;45.50
44729;DHT22;30457;53.590;9.922;2023-04-25T10:31:45;14.00;45.60
44729;DHT22;30457;53.590;9.922;2023-04-25T10:36:18;14.20;45.60
44729;DHT22;30457;53.590;9.922;2023-04-25T10:41:03;14.30;45.00
44729;DHT22;30457;53.590;9.922;2023-04-25T10:45:30;14.50;44.30
44729;DHT22;30457;53.590;9.922;2023-04-25T10:50:05;14.50;45.00
44729;DHT22;30457;53.590;9.922;2023-04-25T10:54:30;14.70;44.10
44729;DHT22;30457;53.590;9.922;2023-04-25T10:59:19;14.80;44.60
44729;DHT22;30457;53.590;9.922;2023-04-25T11:03:45;14.80;44.00
44729;DHT22;30457;53.590;9.922;2023-04-25T11:08:11;14.80;44.00
44729;DHT22;30457;53.590;9.922;2023-04-25T11:12:37;14.80;44.40
44729;DHT22;30457;53.590;9.922;2023-04-25T11:17:02;14.80;45.10
44729;DHT22;30457;53.590;9.922;2023-04-25T11:21:29;14.80;44.70
44729;DHT22;30457;53.590;9.922;2023-04-25T11:25:57;14.90;44.30
44729;DHT22;30457;53.590;9.922;2023-04-25T11:30:23;14.90;44.00
44729;DHT22;30457;53.590;9.922;2023-04-25T11:34:49;14.90;43.70
44729;DHT22;30457;53.590;9.922;2023-04-25T11:39:15;14.80;44.50
44729;DHT22;30457;53.590;9.922;2023-04-25T11:43:43;14.70;44.70
44729;DHT22;30457;53.590;9.922;2023-04-25T11:48:08;14.50;44.40
44729;DHT22;30457;53.590;9.922;2023-04-25T11:52:38;14.50;44.10
44729;DHT22;30457;53.590;9.922;2023-04-25T11:57:04;14.60;44.90
44729;DHT22;30457;53.590;9.922;2023-04-25T12:06:02;15.00;44.80
44729;DHT22;30457;53.590;9.922;2023-04-25T12:10:28;15.20;43.60
44729;DHT22;30457;53.590;9.922;2023-04-25T12:14:54;15.40;42.50
44729;DHT22;30457;53.590;9.922;2023-04-25T12:19:20;15.60;41.20
44729;DHT22;30457;53.590;9.922;2023-04-25T12:23:46;15.70;39.90
44729;DHT22;30457;53.590;9.922;2023-04-25T12:28:20;15.80;39.40
44729;DHT22;30457;53.590;9.922;2023-04-25T12:32:45;15.90;39.10
44729;DHT22;30457;53.590;9.922;2023-04-25T12:37:13;16.00;39.60
44729;DHT22;30457;53.590;9.922;2023-04-25T12:41:38;16.10;38.50
44729;DHT22;30457;53.590;9.922;2023-04-25T12:46:04;16.10;38.40
44729;DHT22;30457;53.590;9.922;2023-04-25T12:50:29;16.10;38.10
44729;DHT22;30457;53.590;9.922;2023-04-25T12:54:55;16.00;39.50
44729;DHT22;30457;53.590;9.922;2023-04-25T12:59:21;16.00;39.30
44729;DHT22;30457;53.590;9.922;2023-04-25T13:03:47;16.00;38.80
44729;DHT22;30457;53.590;9.922;2023-04-25T13:08:13;16.00;39.70
44729;DHT22;30457;53.590;9.922;2023-04-25T13:12:39;16.10;39.80
44729;DHT22;30457;53.590;9.922;2023-04-25T13:17:04;16.10;40.00
44729;DHT22;30457;53.590;9.922;2023-04-25T13:21:30;16.00;40.10
44729;DHT22;30457;53.590;9.922;2023-04-25T13:25:57;15.80;40.90
44729;DHT22;30457;53.590;9.922;2023-04-25T13:30:23;15.40;40.70
44729;DHT22;30457;53.590;9.922;2023-04-25T13:34:50;15.00;41.60
44729;DHT22;30457;53.590;9.922;2023-04-25T13:39:16;14.80;42.80
44729;DHT22;30457;53.590;9.922;2023-04-25T13:43:41;14.70;44.10
44729;DHT22;30457;53.590;9.922;2023-04-25T13:48:07;14.80;44.80
44729;DHT22;30457;53.590;9.922;2023-04-25T13:52:33;14.80;43.60
44729;DHT22;30457;53.590;9.922;2023-04-25T13:56:58;14.70;43.20
44729;DHT22;30457;53.590;9.922;2023-04-25T14:01:24;14.40;43.30
44729;DHT22;30457;53.590;9.922;2023-04-25T14:05:50;14.20;44.10
44729;DHT22;30457;53.590;9.922;2023-04-25T14:10:16;14.00;44.30
44729;DHT22;30457;53.590;9.922;2023-04-25T14:14:41;13.90;44.90
44729;DHT22;30457;53.590;9.922;2023-04-25T14:19:07;13.90;46.00
44729;DHT22;30457;53.590;9.922;2023-04-25T14:23:33;14.00;45.70
44729;DHT22;30457;53.590;9.922;2023-04-25T14:27:58;14.20;45.60
44729;DHT22;30457;53.590;9.922;2023-04-25T14:32:24;14.30;43.50
44729;DHT22;30457;53.590;9.922;2023-04-25T14:36:49;14.30;42.50
44729;DHT22;30457;53.590;9.922;2023-04-25T14:41:15;14.30;41.80
44729;DHT22;30457;53.590;9.922;2023-04-25T14:45:41;14.20;41.30
44729;DHT22;30457;53.590;9.922;2023-04-25T14:50:06;14.20;41.30
44729;DHT22;30457;53.590;9.922;2023-04-25T14:54:32;14.20;41.10
44729;DHT22;30457;53.590;9.922;2023-04-25T14:58:58;14.20;41.00
44729;DHT22;30457;53.590;9.922;2023-04-25T15:03:24;14.40;40.50
44729;DHT22;30457;53.590;9.922;2023-04-25T15:07:49;14.60;40.50
44729;DHT22;30457;53.590;9.922;2023-04-25T15:12:15;14.60;41.40
44729;DHT22;30457;53.590;9.922;2023-04-25T15:16:41;14.60;41.70
44729;DHT22;30457;53.590;9.922;2023-04-25T15:21:07;14.60;43.00
44729;DHT22;30457;53.590;9.922;2023-04-25T15:25:32;14.80;43.40
44729;DHT22;30457;53.590;9.922;2023-04-25T15:29:58;15.10;42.50
44729;DHT22;30457;53.590;9.922;2023-04-25T15:34:23;15.30;41.60
44729;DHT22;30457;53.590;9.922;2023-04-25T15:38:49;15.50;41.00
44729;DHT22;30457;53.590;9.922;2023-04-25T15:43:15;15.60;40.20
44729;DHT22;30457;53.590;9.922;2023-04-25T15:47:41;15.60;39.50
44729;DHT22;30457;53.590;9.922;2023-04-25T15:52:07;15.60;38.80
44729;DHT22;30457;53.590;9.922;2023-04-25T15:56:32;15.60;39.10
44729;DHT22;30457;53.590;9.922;2023-04-25T16:00:58;15.50;38.50
44729;DHT22;30457;53.590;9.922;2023-04-25T16:05:24;15.40;37.90
44729;DHT22;30457;53.590;9.922;2023-04-25T16:09:49;15.30;38.80
44729;DHT22;30457;53.590;9.922;2023-04-25T16:14:15;15.20;38.80
44729;DHT22;30457;53.590;9.922;2023-04-25T16:18:41;15.10;39.10
44729;DHT22;30457;53.590;9.922;2023-04-25T16:23:07;15.00;39.10
44729;DHT22;30457;53.590;9.922;2023-04-25T16:27:33;14.90;39.10
44729;DHT22;30457;53.590;9.922;2023-04-25T16:31:59;14.80;39.10
44729;DHT22;30457;53.590;9.922;2023-04-25T16:36:24;14.60;39.30
44729;DHT22;30457;53.590;9.922;2023-04-25T16:40:51;14.50;39.40
44729;DHT22;30457;53.590;9.922;2023-04-25T16:45:16;14.40;39.80
44729;DHT22;30457;53.590;9.922;2023-04-25T16:49:44;14.40;39.90
44729;DHT22;30457;53.590;9.922;2023-04-25T16:54:10;14.30;40.00
44729;DHT22;30457;53.590;9.922;2023-04-25T16:58:35;14.20;40.40
44729;DHT22;30457;53.590;9.922;2023-04-25T17:03:01;14.10;41.00
44729;DHT22;30457;53.590;9.922;2023-04-25T17:07:27;14.00;41.30
44729;DHT22;30457;53.590;9.922;2023-04-25T17:11:53;13.90;41.50
44729;DHT22;30457;53.590;9.922;2023-04-25T17:16:19;13.80;41.90
44729;DHT22;30457;53.590;9.922;2023-04-25T17:20:47;13.70;43.20
44729;DHT22;30457;53.590;9.922;2023-04-25T17:25:12;13.60;43.60
44729;DHT22;30457;53.590;9.922;2023-04-25T17:29:38;13.50;43.60
44729;DHT22;30457;53.590;9.922;2023-04-25T17:34:04;13.50;43.20
44729;DHT22;30457;53.590;9.922;2023-04-25T17:38:29;13.40;43.40
44729;DHT22;30457;53.590;9.922;2023-04-25T17:42:56;13.20;44.10
44729;DHT22;30457;53.590;9.922;2023-04-25T17:47:22;13.00;44.60
44729;DHT22;30457;53.590;9.922;2023-04-25T17:51:48;12.90;44.80
44729;DHT22;30457;53.590;9.922;2023-04-25T17:56:13;12.80;45.10
44729;DHT22;30457;53.590;9.922;2023-04-25T18:00:39;12.70;46.00
44729;DHT22;30457;53.590;9.922;2023-04-25T18:05:05;12.60;45.20
44729;DHT22;30457;53.590;9.922;2023-04-25T18:09:33;12.50;45.10
44729;DHT22;30457;53.590;9.922;2023-04-25T18:13:59;12.40;45.50
44729;DHT22;30457;53.590;9.922;2023-04-25T18:18:25;12.40;45.40
44729;DHT22;30457;53.590;9.922;2023-04-25T18:22:57;12.30;45.40
44729;DHT22;30457;53.590;9.922;2023-04-25T18:27:23;12.20;45.40
44729;DHT22;30457;53.590;9.922;2023-04-25T18:31:48;12.20;45.50
44729;DHT22;30457;53.590;9.922;2023-04-25T18:36:14;12.10;45.40
44729;DHT22;30457;53.590;9.922;2023-04-25T18:40:40;12.00;45.60
44729;DHT22;30457;53.590;9.922;2023-04-25T18:45:06;11.90;45.60
44729;DHT22;30457;53.590;9.922;2023-04-25T18:49:32;11.80;46.40
44729;DHT22;30457;53.590;9.922;2023-04-25T18:53:58;11.80;46.10
44729;DHT22;30457;53.590;9.922;2023-04-25T18:58:24;11.80;46.10
44729;DHT22;30457;53.590;9.922;2023-04-25T19:02:50;11.70;46.60
44729;DHT22;30457;53.590;9.922;2023-04-25T19:07:16;11.70;46.70
44729;DHT22;30457;53.590;9.922;2023-04-25T19:11:41;11.60;46.70
44729;DHT22;30457;53.590;9.922;2023-04-25T19:16:07;11.50;46.80
44729;DHT22;30457;53.590;9.922;2023-04-25T19:20:33;11.40;47.40
44729;DHT22;30457;53.590;9.922;2023-04-25T19:24:58;11.40;46.70
44729;DHT22;30457;53.590;9.922;2023-04-25T19:29:24;11.30;46.90
44729;DHT22;30457;53.590;9.922;2023-04-25T19:33:50;11.20;46.90
44729;DHT22;30457;53.590;9.922;2023-04-25T19:38:16;11.10;47.10
44729;DHT22;30457;53.590;9.922;2023-04-25T19:42:42;11.10;47.10
44729;DHT22;30457;53.590;9.922;2023-04-25T19:47:07;11.00;47.10
44729;DHT22;30457;53.590;9.922;2023-04-25T19:51:35;11.00;47.30
44729;DHT22;30457;53.590;9.922;2023-04-25T19:56:01;10.90;47.90
44729;DHT22;30457;53.590;9.922;2023-04-25T20:00:27;10.90;47.50
44729;DHT22;30457;53.590;9.922;2023-04-25T20:04:53;10.80;47.60
44729;DHT22;30457;53.590;9.922;2023-04-25T20:09:18;10.80;47.80
44729;DHT22;30457;53.590;9.922;2023-04-25T20:13:47;10.80;47.90
44729;DHT22;30457;53.590;9.922;2023-04-25T20:18:12;10.70;48.00
44729;DHT22;30457;53.590;9.922;2023-04-25T20:22:38;10.60;48.10
44729;DHT22;30457;53.590;9.922;2023-04-25T20:27:04;10.60;48.20
44729;DHT22;30457;53.590;9.922;2023-04-25T20:31:31;10.60;48.30
44729;DHT22;30457;53.590;9.922;2023-04-25T20:35:58;10.50;48.40
44729;DHT22;30457;53.590;9.922;2023-04-25T20:40:24;10.50;48.50
44729;DHT22;30457;53.590;9.922;2023-04-25T20:44:49;10.50;48.50
44729;DHT22;30457;53.590;9.922;2023-04-25T20:49:15;10.50;48.60
44729;DHT22;30457;53.590;9.922;2023-04-25T20:53:40;10.40;48.80
44729;DHT22;30457;53.590;9.922;2023-04-25T20:58:06;10.40;48.70
44729;DHT22;30457;53.590;9.922;2023-04-25T21:02:32;10.40;48.80
44729;DHT22;30457;53.590;9.922;2023-04-25T21:06:57;10.30;48.70
44729;DHT22;30457;53.590;9.922;2023-04-25T21:11:24;10.30;49.10
44729;DHT22;30457;53.590;9.922;2023-04-25T21:15:50;10.20;49.10
44729;DHT22;30457;53.590;9.922;2023-04-25T21:20:17;10.20;49.00
44729;DHT22;30457;53.590;9.922;2023-04-25T21:24:44;10.20;49.10
44729;DHT22;30457;53.590;9.922;2023-04-25T21:29:11;10.20;48.90
44729;DHT22;30457;53.590;9.922;2023-04-25T21:33:37;10.10;49.30
44729;DHT22;30457;53.590;9.922;2023-04-25T21:38:03;10.10;49.60
44729;DHT22;30457;53.590;9.922;2023-04-25T21:42:28;10.00;49.40
44729;DHT22;30457;53.590;9.922;2023-04-25T21:46:54;10.00;49.50
44729;DHT22;30457;53.590;9.922;2023-04-25T21:51:20;10.00;49.80
44729;DHT22;30457;53.590;9.922;2023-04-25T21:55:45;10.00;50.00
44729;DHT22;30457;53.590;9.922;2023-04-25T22:00:11;9.90;50.10
44729;DHT22;30457;53.590;9.922;2023-04-25T22:04:49;9.90;50.40
44729;DHT22;30457;53.590;9.922;2023-04-25T22:09:15;9.80;50.90
44729;DHT22;30457;53.590;9.922;2023-04-25T22:13:41;9.70;51.00
44729;DHT22;30457;53.590;9.922;2023-04-25T22:18:06;9.60;51.30
44729;DHT22;30457;53.590;9.922;2023-04-25T22:22:32;9.50;51.40
44729;DHT22;30457;53.590;9.922;2023-04-25T22:26:58;9.50;51.80
44729;DHT22;30457;53.590;9.922;2023-04-25T22:31:24;9.50;51.80
44729;DHT22;30457;53.590;9.922;2023-04-25T22:35:49;9.40;52.10
44729;DHT22;30457;53.590;9.922;2023-04-25T22:40:15;9.40;52.30
44729;DHT22;30457;53.590;9.922;2023-04-25T22:44:41;9.40;52.40
44729;DHT22;30457;53.590;9.922;2023-04-25T22:49:06;9.40;52.50
44729;DHT22;30457;53.590;9.922;2023-04-25T22:53:32;9.40;52.50
44729;DHT22;30457;53.590;9.922;2023-04-25T22:58:02;9.40;52.70
44729;DHT22;30457;53.590;9.922;2023-04-25T23:02:28;9.40;52.60
44729;DHT22;30457;53.590;9.922;2023-04-25T23:06:54;9.40;52.50
44729;DHT22;30457;53.590;9.922;2023-04-25T23:11:20;9.40;52.40
44729;DHT22;30457;53.590;9.922;2023-04-25T23:15:46;9.30;52.30
44729;DHT22;30457;53.590;9.922;2023-04-25T23:20:12;9.30;52.40
44729;DHT22;30457;53.590;9.922;2023-04-25T23:24:37;9.30;52.40
44729;DHT22;30457;53.590;9.922;2023-04-25T23:29:03;9.30;52.50
44729;DHT22;30457;53.590;9.922;2023-04-25T23:33:29;9.20;52.40
44729;DHT22;30457;53.590;9.922;2023-04-25T23:37:55;9.20;52.60
44729;DHT22;30457;53.590;9.922;2023-04-25T23:42:20;9.20;52.70
44729;DHT22;30457;53.590;9.922;2023-04-25T23:46:46;9.20;52.70
44729;DHT22;30457;53.590;9.922;2023-04-25T23:51:11;9.20;52.90
44729;DHT22;30457;53.590;9.922;2023-04-25T23:55:37;9.10;52.80
